Labolt, SD (57246)

9:29 PM CDT on August 21, 2014 (GMT -0500)
Turkey Ridge | Change Station
CLOSE
Current Station
Personal Weather Station
Location: Watertown, SD
Elevation: 1795 ft
Nearby Weather Stations

Elev 1795 ft 44.91 °N, 97.08 °W | Updated 9 minutes ago

Clear
Clear
74.3 °F
Feels Like 74 °F
N
0.0
Wind Variable Wind from North
Gusts 1.0 mph

Today
High -- | Low -- °F
--% Chance of Precip.
Yesterday
High -- | Low -- °F
Precip. -- in
6:35 AM 8:23 PM
Waning Crescent, 11% visible
Pressure 29.86 in
Visibility 10.0 miles
Clouds Clear
Heat Index 74 °F
Dew Point 68 °F
Humidity 82%
Rainfall 0.36 in
Snow Depth Not available.
UV 0 out of 12
Pollen 7.70 out of 12
Air Quality Not available.
Flu Activity Not available.
METAR KATY 220153Z AUTO 00000KT 10SM CLR 23/20 A2988 RMK AO2 SLP110 T02280200

More Conditions Fewer Conditions

Pressure 29.86 in
Visibility 10.0 miles
Clouds Clear
Heat Index 74 °F
Dew Point 68 °F
Humidity 82%
Rainfall 0.36 in
Snow Depth Not available.
UV 0 out of 12
Pollen 7.70 out of 12
Air Quality Not available.
Flu Activity Not available.
METAR KATY 220153Z AUTO 00000KT 10SM CLR 23/20 A2988 RMK AO2 SLP110 T02280200

More Conditions Fewer Conditions

10-Day Weather Forecast

Almanac

Astronomy

Aug. 21, 2014 Rise Set
Actual Time 6:35 AM CDT 8:23 PM CDT
Civil Twilight 6:04 AM CDT 8:54 PM CDT
Nautical Twilight 5:26 AM CDT 9:32 PM CDT
Astronomical Twilight 4:44 AM CDT 10:13 PM CDT
Moon 3:02 AM CDT (8/21) 5:56 PM CDT (8/21)
Length of Visible Light 14h 50m
Length of Day
13h 47m
Tomorrow will be 2m 54s shorter.
Waning Crescent, 11% of the Moon is Illuminated
Today
Waning Crescent
Aug 25
New
Sep 2
First Quarter
Sep 8
Full
Sep 15
Last Quarter

Today's Extremes

State Highs State Lows

Community

WunderPhotos

Upload Photos

1,746,107 photos uploaded!

WunderBlogs® & News

Nearby

Snow Depth

Station Depth Elevation
Blind Park 0 in 6890 ft

Earthquake Activity

City Distance Mag. Time & Date
No recent earthquake activity has been reported nearby.
Minimum magnitude displayed is 2.5.

Coastal Water Temperatures

Place Temperature
No Stations Reporting

Nearby Weather Stations